sensor_id;sensor_type;location;lat;lon;timestamp;pressure;altitude;pressure_sealevel;temperature;humidity
45129;BME280;35512;56.312;101.728;2023-03-13T00:01:41;95885.41;;;-5.85;71.34
45129;BME280;35512;56.312;101.728;2023-03-13T00:04:11;95878.31;;;-5.89;71.42
45129;BME280;35512;56.312;101.728;2023-03-13T00:06:40;95884.59;;;-5.80;71.15
45129;BME280;35512;56.312;101.728;2023-03-13T00:09:11;95861.06;;;-6.01;71.00
45129;BME280;35512;56.312;101.728;2023-03-13T00:11:40;95878.84;;;-5.87;70.67
45129;BME280;35512;56.312;101.728;2023-03-13T00:14:09;95881.81;;;-5.99;70.43
45129;BME280;35512;56.312;101.728;2023-03-13T00:16:38;95872.88;;;-6.03;70.31
45129;BME280;35512;56.312;101.728;2023-03-13T00:19:07;95907.31;;;-6.00;69.78
45129;BME280;35512;56.312;101.728;2023-03-13T00:21:36;95897.88;;;-6.06;69.47
45129;BME280;35512;56.312;101.728;2023-03-13T00:24:06;95857.97;;;-6.18;69.14
45129;BME280;35512;56.312;101.728;2023-03-13T00:26:35;95915.78;;;-6.18;69.00
45129;BME280;35512;56.312;101.728;2023-03-13T00:29:04;95912.41;;;-6.34;68.47
45129;BME280;35512;56.312;101.728;2023-03-13T00:31:32;95934.50;;;-6.35;68.65
45129;BME280;35512;56.312;101.728;2023-03-13T00:34:03;95927.94;;;-6.38;68.48
45129;BME280;35512;56.312;101.728;2023-03-13T00:36:33;95929.25;;;-6.35;68.01
45129;BME280;35512;56.312;101.728;2023-03-13T00:39:04;95941.03;;;-6.33;68.07
45129;BME280;35512;56.312;101.728;2023-03-13T00:41:37;95935.53;;;-6.41;67.78
45129;BME280;35512;56.312;101.728;2023-03-13T00:44:06;95936.34;;;-6.46;67.21
45129;BME280;35512;56.312;101.728;2023-03-13T00:46:35;95939.50;;;-6.54;67.29
45129;BME280;35512;56.312;101.728;2023-03-13T00:49:05;95950.00;;;-6.49;67.19
45129;BME280;35512;56.312;101.728;2023-03-13T00:51:34;95950.25;;;-6.51;67.18
45129;BME280;35512;56.312;101.728;2023-03-13T00:54:03;95949.19;;;-6.39;66.81
45129;BME280;35512;56.312;101.728;2023-03-13T00:56:33;95966.31;;;-5.66;67.03
45129;BME280;35512;56.312;101.728;2023-03-13T00:59:02;95988.78;;;-5.29;64.89
45129;BME280;35512;56.312;101.728;2023-03-13T01:01:34;95997.88;;;-5.06;64.70
45129;BME280;35512;56.312;101.728;2023-03-13T01:04:09;95991.41;;;-5.24;64.35
45129;BME280;35512;56.312;101.728;2023-03-13T01:06:40;95998.50;;;-5.19;64.57
45129;BME280;35512;56.312;101.728;2023-03-13T01:09:13;96007.81;;;-4.87;64.73
45129;BME280;35512;56.312;101.728;2023-03-13T01:11:44;96006.97;;;-4.83;64.25
45129;BME280;35512;56.312;101.728;2023-03-13T01:14:16;96010.91;;;-4.80;63.81
45129;BME280;35512;56.312;101.728;2023-03-13T01:16:46;96014.50;;;-4.66;63.64
45129;BME280;35512;56.312;101.728;2023-03-13T01:19:15;96036.59;;;-4.56;62.54
45129;BME280;35512;56.312;101.728;2023-03-13T01:21:45;96004.84;;;-4.41;62.68
45129;BME280;35512;56.312;101.728;2023-03-13T01:24:14;96040.38;;;-4.04;63.23
45129;BME280;35512;56.312;101.728;2023-03-13T01:26:44;96050.00;;;-3.60;62.91
45129;BME280;35512;56.312;101.728;2023-03-13T01:29:15;96040.66;;;-3.28;61.47
45129;BME280;35512;56.312;101.728;2023-03-13T01:31:44;96050.59;;;-3.19;60.57
45129;BME280;35512;56.312;101.728;2023-03-13T01:34:13;96061.03;;;-2.66;60.49
45129;BME280;35512;56.312;101.728;2023-03-13T01:36:41;96057.97;;;-1.55;60.39
45129;BME280;35512;56.312;101.728;2023-03-13T01:39:11;96057.19;;;-0.49;58.87
45129;BME280;35512;56.312;101.728;2023-03-13T01:41:40;96070.84;;;0.03;57.08
45129;BME280;35512;56.312;101.728;2023-03-13T01:44:22;96073.53;;;0.66;56.42
45129;BME280;35512;56.312;101.728;2023-03-13T01:46:52;96073.84;;;1.13;56.13
45129;BME280;35512;56.312;101.728;2023-03-13T01:49:27;96072.56;;;0.62;55.90
45129;BME280;35512;56.312;101.728;2023-03-13T01:52:07;96088.50;;;-0.38;56.74
45129;BME280;35512;56.312;101.728;2023-03-13T01:54:52;96072.66;;;-1.49;56.30
45129;BME280;35512;56.312;101.728;2023-03-13T01:57:27;96105.97;;;-2.66;56.85
45129;BME280;35512;56.312;101.728;2023-03-13T02:00:10;96107.19;;;-3.50;58.98
45129;BME280;35512;56.312;101.728;2023-03-13T02:02:45;96111.09;;;-4.06;60.58
45129;BME280;35512;56.312;101.728;2023-03-13T02:05:19;96122.31;;;-4.30;62.06
45129;BME280;35512;56.312;101.728;2023-03-13T02:08:10;96129.56;;;-4.46;62.15
45129;BME280;35512;56.312;101.728;2023-03-13T02:10:50;96132.34;;;-4.77;63.17
45129;BME280;35512;56.312;101.728;2023-03-13T02:13:21;96104.78;;;-5.00;64.09
45129;BME280;35512;56.312;101.728;2023-03-13T02:15:51;96126.91;;;-5.06;65.17
45129;BME280;35512;56.312;101.728;2023-03-13T02:18:21;96125.13;;;-5.21;65.54
45129;BME280;35512;56.312;101.728;2023-03-13T02:20:55;96124.88;;;-5.19;65.97
45129;BME280;35512;56.312;101.728;2023-03-13T02:23:32;96134.31;;;-3.44;67.47
45129;BME280;35512;56.312;101.728;2023-03-13T02:26:02;96110.78;;;-1.03;64.70
45129;BME280;35512;56.312;101.728;2023-03-13T02:28:34;96132.19;;;0.70;61.45
45129;BME280;35512;56.312;101.728;2023-03-13T02:31:13;96121.38;;;1.06;59.18
45129;BME280;35512;56.312;101.728;2023-03-13T02:33:42;96113.34;;;0.89;57.75
45129;BME280;35512;56.312;101.728;2023-03-13T02:36:16;96112.38;;;0.53;57.96
45129;BME280;35512;56.312;101.728;2023-03-13T02:38:54;96111.66;;;0.93;57.46
45129;BME280;35512;56.312;101.728;2023-03-13T02:41:25;96103.09;;;0.73;56.41
45129;BME280;35512;56.312;101.728;2023-03-13T02:43:57;96120.34;;;0.84;54.75
45129;BME280;35512;56.312;101.728;2023-03-13T02:46:26;96127.88;;;1.40;55.45
45129;BME280;35512;56.312;101.728;2023-03-13T02:48:56;96146.94;;;0.84;52.74
45129;BME280;35512;56.312;101.728;2023-03-13T02:51:34;96158.41;;;-0.84;54.02
45129;BME280;35512;56.312;101.728;2023-03-13T02:54:10;96176.66;;;-2.33;55.75
45129;BME280;35512;56.312;101.728;2023-03-13T02:56:44;96203.31;;;-3.21;57.30
45129;BME280;35512;56.312;101.728;2023-03-13T02:59:14;96200.69;;;-3.96;58.74
45129;BME280;35512;56.312;101.728;2023-03-13T03:01:46;96218.38;;;-4.51;61.34
45129;BME280;35512;56.312;101.728;2023-03-13T03:04:15;96208.75;;;-4.77;62.63
45129;BME280;35512;56.312;101.728;2023-03-13T03:06:44;96219.03;;;-4.80;63.43
45129;BME280;35512;56.312;101.728;2023-03-13T03:09:13;96217.81;;;-3.53;63.83
45129;BME280;35512;56.312;101.728;2023-03-13T03:11:42;96210.16;;;-1.33;62.24
45129;BME280;35512;56.312;101.728;2023-03-13T03:14:14;96212.38;;;0.94;57.95
45129;BME280;35512;56.312;101.728;2023-03-13T03:16:45;96229.81;;;2.42;55.56
45129;BME280;35512;56.312;101.728;2023-03-13T03:19:14;96222.78;;;2.38;50.80
45129;BME280;35512;56.312;101.728;2023-03-13T03:21:43;96219.19;;;1.18;51.41
45129;BME280;35512;56.312;101.728;2023-03-13T03:24:12;96223.69;;;2.68;52.43
45129;BME280;35512;56.312;101.728;2023-03-13T03:26:41;96226.41;;;3.24;48.62
45129;BME280;35512;56.312;101.728;2023-03-13T03:29:18;96222.28;;;2.09;46.81
45129;BME280;35512;56.312;101.728;2023-03-13T03:31:50;96239.16;;;0.75;49.34
45129;BME280;35512;56.312;101.728;2023-03-13T03:34:19;96244.31;;;-0.15;50.23
45129;BME280;35512;56.312;101.728;2023-03-13T03:36:49;96260.59;;;1.33;50.14
45129;BME280;35512;56.312;101.728;2023-03-13T03:39:18;96262.78;;;1.71;48.16
45129;BME280;35512;56.312;101.728;2023-03-13T03:41:47;96215.69;;;1.40;46.66
45129;BME280;35512;56.312;101.728;2023-03-13T03:44:16;96258.25;;;0.41;47.24
45129;BME280;35512;56.312;101.728;2023-03-13T03:47:03;96273.66;;;-0.95;47.65
45129;BME280;35512;56.312;101.728;2023-03-13T03:49:37;96286.06;;;-1.81;49.48
45129;BME280;35512;56.312;101.728;2023-03-13T03:52:07;96303.50;;;-1.04;52.21
45129;BME280;35512;56.312;101.728;2023-03-13T03:54:39;96273.56;;;1.66;49.41
45129;BME280;35512;56.312;101.728;2023-03-13T03:57:07;96272.38;;;3.38;45.65
45129;BME280;35512;56.312;101.728;2023-03-13T03:59:37;96288.22;;;4.12;44.06
45129;BME280;35512;56.312;101.728;2023-03-13T04:02:08;96307.91;;;3.13;44.81
45129;BME280;35512;56.312;101.728;2023-03-13T04:04:40;96287.97;;;2.58;44.66
45129;BME280;35512;56.312;101.728;2023-03-13T04:07:20;96303.69;;;1.44;45.89
45129;BME280;35512;56.312;101.728;2023-03-13T04:09:49;96314.09;;;0.63;45.30
45129;BME280;35512;56.312;101.728;2023-03-13T04:12:28;96326.59;;;-0.57;46.71
45129;BME280;35512;56.312;101.728;2023-03-13T04:14:57;96320.97;;;-1.79;48.91
45129;BME280;35512;56.312;101.728;2023-03-13T04:17:26;96321.25;;;-1.23;49.59
45129;BME280;35512;56.312;101.728;2023-03-13T04:19:55;96327.81;;;-0.22;47.83
45129;BME280;35512;56.312;101.728;2023-03-13T04:22:24;96314.06;;;0.41;46.42
45129;BME280;35512;56.312;101.728;2023-03-13T04:24:57;96326.59;;;-0.15;46.29
45129;BME280;35512;56.312;101.728;2023-03-13T04:27:29;96322.50;;;-1.15;46.26
45129;BME280;35512;56.312;101.728;2023-03-13T04:30:01;96340.31;;;-2.02;48.14
45129;BME280;35512;56.312;101.728;2023-03-13T04:32:48;96333.75;;;-1.24;49.31
45129;BME280;35512;56.312;101.728;2023-03-13T04:35:18;96332.47;;;0.37;47.59
45129;BME280;35512;56.312;101.728;2023-03-13T04:38:06;96328.91;;;1.24;46.32
45129;BME280;35512;56.312;101.728;2023-03-13T04:40:53;96330.31;;;1.52;46.20
45129;BME280;35512;56.312;101.728;2023-03-13T04:43:42;96325.75;;;0.54;44.81
45129;BME280;35512;56.312;101.728;2023-03-13T04:46:29;96347.91;;;-0.95;46.49
45129;BME280;35512;56.312;101.728;2023-03-13T04:49:21;96345.56;;;-2.22;47.89
45129;BME280;35512;56.312;101.728;2023-03-13T04:52:13;96358.81;;;-3.15;49.19
45129;BME280;35512;56.312;101.728;2023-03-13T04:54:51;96345.44;;;-3.74;51.92
45129;BME280;35512;56.312;101.728;2023-03-13T04:57:49;96357.25;;;-4.21;54.64
45129;BME280;35512;56.312;101.728;2023-03-13T05:00:41;96370.19;;;-3.64;56.27
45129;BME280;35512;56.312;101.728;2023-03-13T05:03:25;96376.41;;;-1.88;55.37
45129;BME280;35512;56.312;101.728;2023-03-13T05:06:07;96366.59;;;-1.06;52.92
45129;BME280;35512;56.312;101.728;2023-03-13T05:08:55;96356.28;;;-0.27;52.38
45129;BME280;35512;56.312;101.728;2023-03-13T05:11:53;96325.22;;;0.65;49.03
45129;BME280;35512;56.312;101.728;2023-03-13T05:14:44;96356.50;;;0.04;48.47
45129;BME280;35512;56.312;101.728;2023-03-13T05:17:33;96370.03;;;-0.39;48.72
45129;BME280;35512;56.312;101.728;2023-03-13T05:20:20;96338.94;;;-0.66;49.00
45129;BME280;35512;56.312;101.728;2023-03-13T05:23:17;96358.72;;;-0.78;48.45
45129;BME280;35512;56.312;101.728;2023-03-13T05:25:46;96365.94;;;-0.97;49.11
45129;BME280;35512;56.312;101.728;2023-03-13T05:28:24;96351.13;;;-1.17;48.46
45129;BME280;35512;56.312;101.728;2023-03-13T05:31:07;96350.84;;;-1.35;48.97
45129;BME280;35512;56.312;101.728;2023-03-13T05:33:56;96362.06;;;-0.39;50.36
45129;BME280;35512;56.312;101.728;2023-03-13T05:36:46;96370.03;;;2.61;48.34
45129;BME280;35512;56.312;101.728;2023-03-13T05:39:31;96364.34;;;4.36;43.92
45129;BME280;35512;56.312;101.728;2023-03-13T05:42:14;96370.41;;;4.24;41.26
45129;BME280;35512;56.312;101.728;2023-03-13T05:44:59;96375.38;;;2.96;40.77
45129;BME280;35512;56.312;101.728;2023-03-13T05:47:31;96361.69;;;1.33;40.71
45129;BME280;35512;56.312;101.728;2023-03-13T05:50:38;96381.53;;;1.04;43.41
45129;BME280;35512;56.312;101.728;2023-03-13T05:53:28;96358.06;;;1.29;41.60
45129;BME280;35512;56.312;101.728;2023-03-13T05:56:17;96380.25;;;1.01;41.16
45129;BME280;35512;56.312;101.728;2023-03-13T05:59:04;96390.97;;;0.74;39.00
45129;BME280;35512;56.312;101.728;2023-03-13T06:02:04;96414.84;;;0.88;40.00
45129;BME280;35512;56.312;101.728;2023-03-13T06:04:38;96417.88;;;0.95;40.63
45129;BME280;35512;56.312;101.728;2023-03-13T06:07:08;96422.22;;;0.12;40.16
45129;BME280;35512;56.312;101.728;2023-03-13T06:09:37;96436.56;;;-0.03;42.04
45129;BME280;35512;56.312;101.728;2023-03-13T06:12:07;96436.44;;;2.40;41.21
45129;BME280;35512;56.312;101.728;2023-03-13T06:14:36;96423.31;;;4.99;39.68
45129;BME280;35512;56.312;101.728;2023-03-13T06:17:11;96393.00;;;5.62;35.59
45129;BME280;35512;56.312;101.728;2023-03-13T06:19:40;96424.63;;;4.25;35.08
45129;BME280;35512;56.312;101.728;2023-03-13T06:22:09;96423.22;;;2.66;35.95
45129;BME280;35512;56.312;101.728;2023-03-13T06:24:37;96414.59;;;2.69;37.52
45129;BME280;35512;56.312;101.728;2023-03-13T06:27:06;96426.69;;;3.19;37.33
45129;BME280;35512;56.312;101.728;2023-03-13T06:29:35;96427.66;;;3.06;35.00
45129;BME280;35512;56.312;101.728;2023-03-13T06:32:04;96412.38;;;2.13;34.71
45129;BME280;35512;56.312;101.728;2023-03-13T06:34:33;96441.91;;;0.90;35.85
45129;BME280;35512;56.312;101.728;2023-03-13T06:37:02;96441.56;;;0.13;36.30
45129;BME280;35512;56.312;101.728;2023-03-13T06:39:31;96455.00;;;-0.11;38.55
45129;BME280;35512;56.312;101.728;2023-03-13T06:42:01;96451.75;;;-0.22;38.37
45129;BME280;35512;56.312;101.728;2023-03-13T06:44:30;96435.66;;;-0.45;36.59
45129;BME280;35512;56.312;101.728;2023-03-13T06:46:59;96448.09;;;-1.60;37.40
45129;BME280;35512;56.312;101.728;2023-03-13T06:49:28;96454.81;;;-2.50;38.13
45129;BME280;35512;56.312;101.728;2023-03-13T06:51:57;96446.91;;;-2.90;38.32
45129;BME280;35512;56.312;101.728;2023-03-13T06:54:26;96455.28;;;-3.23;39.17
45129;BME280;35512;56.312;101.728;2023-03-13T06:56:55;96452.09;;;-3.25;38.77
45129;BME280;35512;56.312;101.728;2023-03-13T06:59:24;96470.84;;;-3.21;39.69
45129;BME280;35512;56.312;101.728;2023-03-13T07:01:53;96490.19;;;-2.81;39.73
45129;BME280;35512;56.312;101.728;2023-03-13T07:04:22;96483.53;;;-2.73;40.36
45129;BME280;35512;56.312;101.728;2023-03-13T07:06:51;96493.91;;;-2.47;39.96
45129;BME280;35512;56.312;101.728;2023-03-13T07:09:20;96478.75;;;-2.36;39.69
45129;BME280;35512;56.312;101.728;2023-03-13T07:11:49;96477.13;;;-1.06;40.24
45129;BME280;35512;56.312;101.728;2023-03-13T07:14:18;96477.31;;;0.21;39.50
45129;BME280;35512;56.312;101.728;2023-03-13T07:16:47;96501.09;;;0.26;39.01
45129;BME280;35512;56.312;101.728;2023-03-13T07:19:16;96492.47;;;1.85;40.32
45129;BME280;35512;56.312;101.728;2023-03-13T07:21:45;96500.50;;;3.85;38.52
45129;BME280;35512;56.312;101.728;2023-03-13T07:24:14;96489.16;;;3.09;35.36
45129;BME280;35512;56.312;101.728;2023-03-13T07:26:43;96504.53;;;1.46;36.22
45129;BME280;35512;56.312;101.728;2023-03-13T07:29:31;96506.53;;;0.21;37.41
45129;BME280;35512;56.312;101.728;2023-03-13T07:32:00;96515.03;;;-0.87;38.17
45129;BME280;35512;56.312;101.728;2023-03-13T07:34:29;96517.34;;;-1.72;38.98
45129;BME280;35512;56.312;101.728;2023-03-13T07:36:58;96509.00;;;-2.48;39.44
45129;BME280;35512;56.312;101.728;2023-03-13T07:39:26;96526.00;;;-3.04;39.96
45129;BME280;35512;56.312;101.728;2023-03-13T07:41:55;96531.41;;;-2.80;40.43
45129;BME280;35512;56.312;101.728;2023-03-13T07:44:24;96522.03;;;-1.93;39.46
45129;BME280;35512;56.312;101.728;2023-03-13T07:46:53;96535.56;;;-1.41;39.26
45129;BME280;35512;56.312;101.728;2023-03-13T07:49:22;96539.25;;;-0.93;39.24
45129;BME280;35512;56.312;101.728;2023-03-13T07:51:51;96545.59;;;-0.51;37.92
45129;BME280;35512;56.312;101.728;2023-03-13T07:54:20;96546.38;;;-0.51;38.43
45129;BME280;35512;56.312;101.728;2023-03-13T07:56:49;96547.59;;;-0.62;37.18
45129;BME280;35512;56.312;101.728;2023-03-13T07:59:18;96568.69;;;0.20;36.96
45129;BME280;35512;56.312;101.728;2023-03-13T08:01:47;96544.22;;;1.57;36.35
45129;BME280;35512;56.312;101.728;2023-03-13T08:04:16;96562.88;;;2.25;34.37
45129;BME280;35512;56.312;101.728;2023-03-13T08:06:45;96550.38;;;2.02;34.20
45129;BME280;35512;56.312;101.728;2023-03-13T08:09:14;96564.69;;;2.15;34.15
45129;BME280;35512;56.312;101.728;2023-03-13T08:11:43;96567.44;;;2.24;33.62
45129;BME280;35512;56.312;101.728;2023-03-13T08:14:11;96553.53;;;2.05;33.85
45129;BME280;35512;56.312;101.728;2023-03-13T08:16:41;96580.38;;;1.21;33.13
45129;BME280;35512;56.312;101.728;2023-03-13T08:19:10;96589.63;;;0.21;34.49
45129;BME280;35512;56.312;101.728;2023-03-13T08:21:38;96586.94;;;-0.69;34.91
45129;BME280;35512;56.312;101.728;2023-03-13T08:24:09;96581.44;;;-1.45;35.88
45129;BME280;35512;56.312;101.728;2023-03-13T08:26:40;96582.13;;;-1.88;36.47
45129;BME280;35512;56.312;101.728;2023-03-13T08:29:12;96599.53;;;-0.18;36.34
45129;BME280;35512;56.312;101.728;2023-03-13T08:31:48;96589.09;;;1.49;35.04
45129;BME280;35512;56.312;101.728;2023-03-13T08:34:19;96610.13;;;0.35;34.00
45129;BME280;35512;56.312;101.728;2023-03-13T08:36:48;96622.56;;;-1.24;36.26
45129;BME280;35512;56.312;101.728;2023-03-13T08:39:18;96628.88;;;-1.78;38.91
45129;BME280;35512;56.312;101.728;2023-03-13T08:41:47;96617.50;;;-0.53;39.68
45129;BME280;35512;56.312;101.728;2023-03-13T08:44:18;96623.16;;;1.11;38.74
45129;BME280;35512;56.312;101.728;2023-03-13T08:46:47;96622.53;;;2.15;37.61
45129;BME280;35512;56.312;101.728;2023-03-13T08:49:19;96619.50;;;2.53;36.44
45129;BME280;35512;56.312;101.728;2023-03-13T08:51:48;96624.72;;;1.40;36.43
45129;BME280;35512;56.312;101.728;2023-03-13T08:54:17;96627.53;;;0.27;37.55
45129;BME280;35512;56.312;101.728;2023-03-13T08:56:46;96618.91;;;-0.60;38.29
45129;BME280;35512;56.312;101.728;2023-03-13T08:59:15;96630.28;;;-1.27;38.67
45129;BME280;35512;56.312;101.728;2023-03-13T09:01:44;96636.56;;;-2.16;38.43
45129;BME280;35512;56.312;101.728;2023-03-13T09:04:14;96635.34;;;-2.95;39.49
45129;BME280;35512;56.312;101.728;2023-03-13T09:06:43;96667.41;;;-3.48;40.55
45129;BME280;35512;56.312;101.728;2023-03-13T09:09:12;96665.56;;;-3.94;41.99
45129;BME280;35512;56.312;101.728;2023-03-13T09:11:41;96630.41;;;-4.35;43.58
45129;BME280;35512;56.312;101.728;2023-03-13T09:14:10;96669.84;;;-4.66;44.27
45129;BME280;35512;56.312;101.728;2023-03-13T09:16:39;96676.09;;;-4.88;44.58
45129;BME280;35512;56.312;101.728;2023-03-13T09:19:08;96658.63;;;-5.10;45.01
45129;BME280;35512;56.312;101.728;2023-03-13T09:21:37;96666.06;;;-5.39;45.58
45129;BME280;35512;56.312;101.728;2023-03-13T09:24:06;96665.88;;;-5.70;45.46
45129;BME280;35512;56.312;101.728;2023-03-13T09:26:35;96669.78;;;-5.72;45.60
45129;BME280;35512;56.312;101.728;2023-03-13T09:29:04;96667.94;;;-5.72;45.76
45129;BME280;35512;56.312;101.728;2023-03-13T09:31:33;96675.31;;;-5.69;45.63
45129;BME280;35512;56.312;101.728;2023-03-13T09:34:02;96682.09;;;-5.78;45.34
45129;BME280;35512;56.312;101.728;2023-03-13T09:36:31;96683.63;;;-5.82;45.74
45129;BME280;35512;56.312;101.728;2023-03-13T09:39:00;96698.69;;;-5.78;45.53
45129;BME280;35512;56.312;101.728;2023-03-13T09:41:42;96698.69;;;-5.78;45.94
45129;BME280;35512;56.312;101.728;2023-03-13T09:47:05;96677.91;;;-4.99;46.17
45129;BME280;35512;56.312;101.728;2023-03-13T09:49:40;96682.28;;;-5.15;45.71
45129;BME280;35512;56.312;101.728;2023-03-13T09:52:17;96701.66;;;-5.31;46.12
45129;BME280;35512;56.312;101.728;2023-03-13T09:55:00;96708.13;;;-5.49;46.29
45129;BME280;35512;56.312;101.728;2023-03-13T09:57:40;96718.44;;;-5.75;46.67
45129;BME280;35512;56.312;101.728;2023-03-13T10:00:24;96710.84;;;-6.04;47.07
45129;BME280;35512;56.312;101.728;2023-03-13T10:05:28;96714.59;;;-6.44;48.05
45129;BME280;35512;56.312;101.728;2023-03-13T10:08:12;96712.84;;;-6.60;48.06
45129;BME280;35512;56.312;101.728;2023-03-13T10:13:48;96699.41;;;-6.64;48.14
45129;BME280;35512;56.312;101.728;2023-03-13T10:16:36;96724.63;;;-6.63;47.66
45129;BME280;35512;56.312;101.728;2023-03-13T10:19:13;96730.00;;;-6.75;47.95
45129;BME280;35512;56.312;101.728;2023-03-13T10:21:49;96727.50;;;-6.87;47.70
45129;BME280;35512;56.312;101.728;2023-03-13T10:24:35;96732.34;;;-6.96;48.06
45129;BME280;35512;56.312;101.728;2023-03-13T10:27:08;96730.63;;;-7.07;48.09
45129;BME280;35512;56.312;101.728;2023-03-13T10:29:36;96746.88;;;-7.10;47.67
45129;BME280;35512;56.312;101.728;2023-03-13T10:32:07;96748.84;;;-7.17;47.95
45129;BME280;35512;56.312;101.728;2023-03-13T10:37:29;96759.22;;;-7.27;48.40
45129;BME280;35512;56.312;101.728;2023-03-13T10:40:20;96743.47;;;-7.27;48.23
45129;BME280;35512;56.312;101.728;2023-03-13T10:42:59;96762.94;;;-7.40;48.64
45129;BME280;35512;56.312;101.728;2023-03-13T10:45:33;96752.69;;;-7.59;48.71
45129;BME280;35512;56.312;101.728;2023-03-13T10:50:42;96761.56;;;-7.77;49.95
45129;BME280;35512;56.312;101.728;2023-03-13T10:56:11;96778.03;;;-7.93;50.42
45129;BME280;35512;56.312;101.728;2023-03-13T10:58:51;96767.38;;;-8.04;50.53
45129;BME280;35512;56.312;101.728;2023-03-13T11:01:29;96771.75;;;-8.09;50.67
45129;BME280;35512;56.312;101.728;2023-03-13T11:04:27;96781.53;;;-8.17;51.13
45129;BME280;35512;56.312;101.728;2023-03-13T11:07:04;96787.97;;;-8.24;51.11
45129;BME280;35512;56.312;101.728;2023-03-13T11:09:33;96793.34;;;-8.31;51.28
45129;BME280;35512;56.312;101.728;2023-03-13T11:12:19;96807.09;;;-8.36;51.75
45129;BME280;35512;56.312;101.728;2023-03-13T11:14:58;96794.38;;;-8.44;51.94
45129;BME280;35512;56.312;101.728;2023-03-13T11:17:31;96791.38;;;-8.36;52.17
45129;BME280;35512;56.312;101.728;2023-03-13T11:20:26;96802.44;;;-8.34;52.32
45129;BME280;35512;56.312;101.728;2023-03-13T11:28:48;96809.69;;;-8.12;52.80
45129;BME280;35512;56.312;101.728;2023-03-13T11:31:40;96814.22;;;-8.07;53.06
45129;BME280;35512;56.312;101.728;2023-03-13T11:34:32;96813.91;;;-8.11;53.14
45129;BME280;35512;56.312;101.728;2023-03-13T11:37:12;96830.53;;;-8.05;53.67
45129;BME280;35512;56.312;101.728;2023-03-13T11:42:42;96838.50;;;-8.12;54.35
45129;BME280;35512;56.312;101.728;2023-03-13T11:56:31;96859.34;;;-8.58;55.89
45129;BME280;35512;56.312;101.728;2023-03-13T11:59:30;96849.56;;;-8.62;55.98
45129;BME280;35512;56.312;101.728;2023-03-13T12:04:58;96850.13;;;-8.60;56.35
45129;BME280;35512;56.312;101.728;2023-03-13T12:07:50;96853.97;;;-8.63;56.24
45129;BME280;35512;56.312;101.728;2023-03-13T12:10:27;96861.50;;;-8.67;56.15
45129;BME280;35512;56.312;101.728;2023-03-13T12:13:16;96860.25;;;-8.64;56.02
45129;BME280;35512;56.312;101.728;2023-03-13T12:15:54;96864.69;;;-8.64;56.40
45129;BME280;35512;56.312;101.728;2023-03-13T12:18:39;96867.66;;;-8.61;55.98
45129;BME280;35512;56.312;101.728;2023-03-13T12:21:17;96867.19;;;-8.58;56.30
45129;BME280;35512;56.312;101.728;2023-03-13T12:26:59;96872.91;;;-8.61;56.81
45129;BME280;35512;56.312;101.728;2023-03-13T12:32:39;96895.50;;;-8.43;56.58
45129;BME280;35512;56.312;101.728;2023-03-13T12:37:53;96895.63;;;-8.38;56.26
45129;BME280;35512;56.312;101.728;2023-03-13T12:40:40;96892.22;;;-8.38;56.28
45129;BME280;35512;56.312;101.728;2023-03-13T12:43:19;96894.50;;;-8.42;56.10
45129;BME280;35512;56.312;101.728;2023-03-13T12:51:41;96900.09;;;-8.50;56.38
45129;BME280;35512;56.312;101.728;2023-03-13T12:54:52;96899.31;;;-8.51;56.32
45129;BME280;35512;56.312;101.728;2023-03-13T13:00:16;96909.44;;;-8.54;56.34
45129;BME280;35512;56.312;101.728;2023-03-13T13:05:30;96903.31;;;-8.60;56.17
45129;BME280;35512;56.312;101.728;2023-03-13T13:08:00;96908.06;;;-8.57;56.01
45129;BME280;35512;56.312;101.728;2023-03-13T13:10:29;96910.09;;;-8.59;55.98
45129;BME280;35512;56.312;101.728;2023-03-13T13:18:46;96905.22;;;-8.67;55.97
45129;BME280;35512;56.312;101.728;2023-03-13T13:23:46;96889.84;;;-8.87;56.50
45129;BME280;35512;56.312;101.728;2023-03-13T13:37:30;96893.00;;;-9.09;56.66
45129;BME280;35512;56.312;101.728;2023-03-13T13:40:28;96889.78;;;-9.11;57.33
45129;BME280;35512;56.312;101.728;2023-03-13T13:43:01;96896.63;;;-9.10;57.02
45129;BME280;35512;56.312;101.728;2023-03-13T13:45:37;96875.25;;;-9.19;57.11
45129;BME280;35512;56.312;101.728;2023-03-13T13:48:29;96889.94;;;-9.06;56.86
45129;BME280;35512;56.312;101.728;2023-03-13T13:56:41;96892.66;;;-9.01;56.94
45129;BME280;35512;56.312;101.728;2023-03-13T14:04:55;96898.72;;;-8.88;57.06
45129;BME280;35512;56.312;101.728;2023-03-13T14:12:56;96898.03;;;-8.72;57.20
45129;BME280;35512;56.312;101.728;2023-03-13T14:15:34;96890.09;;;-8.65;57.07
45129;BME280;35512;56.312;101.728;2023-03-13T14:18:24;96900.09;;;-8.50;56.82
45129;BME280;35512;56.312;101.728;2023-03-13T14:26:35;96892.00;;;-8.37;57.16
45129;BME280;35512;56.312;101.728;2023-03-13T14:29:18;96887.53;;;-8.36;57.45
45129;BME280;35512;56.312;101.728;2023-03-13T14:31:55;96880.25;;;-8.34;57.96
45129;BME280;35512;56.312;101.728;2023-03-13T14:34:26;96895.97;;;-8.34;57.85
45129;BME280;35512;56.312;101.728;2023-03-13T14:37:01;96887.06;;;-8.33;58.13
45129;BME280;35512;56.312;101.728;2023-03-13T14:39:45;96888.13;;;-8.34;58.34
45129;BME280;35512;56.312;101.728;2023-03-13T14:42:17;96895.16;;;-8.35;58.29
45129;BME280;35512;56.312;101.728;2023-03-13T14:44:47;96897.78;;;-8.35;58.77
45129;BME280;35512;56.312;101.728;2023-03-13T14:47:27;96890.28;;;-8.31;58.78
45129;BME280;35512;56.312;101.728;2023-03-13T14:50:02;96892.19;;;-8.26;58.83
45129;BME280;35512;56.312;101.728;2023-03-13T14:52:32;96893.00;;;-8.26;58.62
45129;BME280;35512;56.312;101.728;2023-03-13T14:55:04;96891.19;;;-8.25;58.97
45129;BME280;35512;56.312;101.728;2023-03-13T14:57:54;96886.16;;;-8.27;58.83
45129;BME280;35512;56.312;101.728;2023-03-13T15:00:42;96886.72;;;-8.25;59.40
45129;BME280;35512;56.312;101.728;2023-03-13T15:08:43;96888.56;;;-8.25;59.79